Pella, IA

10:28 PM CDT on September 22, 2017 (GMT -0500)
Pella Municipal

Weather History for KPEA - November, 2012

Change the Weather History Date:

Sunday, November 11, 2012

  Actual Average (KOXV) Record (KOXV)
Temperature  
Mean Temperature 46 °F -  
Max Temperature 67 °F 48 °F 74 °F (1964)
Min Temperature 25 °F 30 °F 4 °F (1986)
Degree Days  
Heating Degree Days 18    
Moisture  
Dew Point 36 °F    
Average Humidity 81    
Maximum Humidity 96    
Minimum Humidity 51    
Precipitation  
Precipitation 0.50 in - - ()
Sea Level Pressure  
Sea Level Pressure 29.86 in    
Wind  
Wind Speed 15 mph (West)    
Max Wind Speed 21 mph    
Max Gust Speed 31 mph    
Visibility 8 miles    
Events Rain    
Averages and records for this station are not official NWS values.
T = Trace of Precipitation, MM = Missing Value Source: NWS Daily Summary

Daily Weather History Graph

Daily Weather History Graph

Search for Another Location

Airport or City:

Trip Planner

Search our weather history database for the weather conditions in past years. The results will help you decide how hot, cold, wet, or windy it might be!

Date:

Astronomy

Nov. 11, 2012 Rise Set
Actual Time 6:55 AM CST 4:55 PM CST
Civil Twilight 6:26 AM CST 5:24 PM CST
Nautical Twilight 5:53 AM CST 5:57 PM CST
Astronomical Twilight 5:20 AM CST 6:30 PM CST
Moon 4:09 AM CST (11/11) 3:20 PM CST (11/11)
Length of Visible Light 10h 58m
Length of Day
9h 59m
Waning Crescent, 7% of the Moon is Illuminated
Nov 11
Waning Crescent
Nov 13
New
Nov 20
First Quarter
Nov 28
Full
Dec 6
Last Quarter

Hourly Weather History & Observations

Time (CST) Temp. Windchill Dew Point Humidity Pressure Visibility Wind Dir Wind Speed Gust Speed Precip Events Conditions
12:15 AM 67.1 °F - 48.4 °F 51% 29.71 in 10.0 mi South 17.3 mph 31.1 mph N/A   Clear
12:35 AM 66.6 °F - 49.1 °F 53% 29.71 in 10.0 mi South 15.0 mph 28.8 mph N/A   Clear
12:55 AM 66.6 °F - 50.0 °F 55% 29.71 in 10.0 mi South 19.6 mph 26.5 mph N/A   Mostly Cloudy
1:15 AM 66.6 °F - 50.4 °F 56% 29.72 in 10.0 mi South 19.6 mph 26.5 mph N/A   Overcast
1:35 AM 66.4 °F - 50.9 °F 57% 29.73 in 10.0 mi South 17.3 mph 26.5 mph N/A   Overcast
1:55 AM 66.2 °F - 51.1 °F 58% 29.72 in 10.0 mi South 17.3 mph 25.3 mph N/A   Overcast
2:15 AM 66.0 °F - 51.8 °F 60% 29.74 in 10.0 mi South 15.0 mph 25.3 mph N/A   Overcast
2:35 AM 63.3 °F - 54.0 °F 71% 29.75 in 7.0 mi SSW 18.4 mph 25.3 mph N/A   Drizzle
2:55 AM 61.7 °F - 55.2 °F 79% 29.75 in 10.0 mi South 15.0 mph 18.4 mph N/A   Overcast
3:15 AM 60.6 °F - 55.6 °F 83% 29.74 in 10.0 mi South 11.5 mph 17.3 mph N/A   Drizzle
3:35 AM 59.9 °F - 55.4 °F 85% 29.71 in 10.0 mi SSE 8.1 mph - N/A   Scattered Clouds
3:55 AM 59.7 °F - 56.1 °F 88% 29.69 in 10.0 mi SSE 9.2 mph - N/A   Scattered Clouds
4:15 AM 59.9 °F - 56.3 °F 88% 29.70 in 10.0 mi SSE 10.4 mph - N/A   Mostly Cloudy
4:35 AM 59.9 °F - 56.3 °F 88% 29.69 in 10.0 mi SE 9.2 mph - N/A   Mostly Cloudy
4:55 AM 60.1 °F - 56.3 °F 87% 29.69 in 10.0 mi SE 10.4 mph - N/A   Mostly Cloudy
5:35 AM 59.2 °F - 57.2 °F 93% 29.73 in 5.0 mi South 10.4 mph - 0.13 in Rain Rain
5:55 AM 59.0 °F - 57.2 °F 94% 29.71 in 7.0 mi South 6.9 mph - 0.16 in Rain Rain
6:15 AM 58.6 °F - 56.8 °F 94% 29.67 in 7.0 mi SE 4.6 mph - 0.03 in Rain Heavy Rain
6:35 AM 58.3 °F - 56.5 °F 94% 29.66 in 7.0 mi ESE 5.8 mph - 0.05 in Rain Rain
6:55 AM 58.3 °F - 56.7 °F 94% 29.68 in 10.0 mi SSE 9.2 mph - 0.05 in Rain Light Rain
7:35 AM 50.9 °F - 47.5 °F 88% 29.71 in 4.0 mi WNW 17.3 mph 27.6 mph 0.04 in Rain Heavy Rain
7:55 AM 45.0 °F 37.4 °F 43.3 °F 94% 29.71 in 4.0 mi WNW 18.4 mph 26.5 mph 0.09 in Rain Rain
8:15 AM 43.2 °F 34.7 °F 41.5 °F 94% 29.74 in 1.5 mi NW 19.6 mph 29.9 mph 0.06 in Rain Light Rain
8:35 AM 41.7 °F 33.7 °F 39.9 °F 93% 29.76 in 4.0 mi NW 16.1 mph 25.3 mph 0.09 in Rain Heavy Rain
8:55 AM 40.5 °F 32.1 °F 38.7 °F 93% 29.77 in 10.0 mi NW 16.1 mph 24.2 mph 0.09 in Rain Rain
9:15 AM 39.7 °F 33.2 °F 37.9 °F 93% 29.77 in 5.0 mi NW 10.4 mph 18.4 mph N/A Rain Rain
9:35 AM 39.4 °F 29.8 °F 37.9 °F 95% 29.77 in 2.5 mi WNW 19.6 mph 27.6 mph 0.03 in Rain Rain
9:55 AM 38.7 °F 30.5 °F 37.0 °F 94% 29.80 in 5.0 mi WNW 13.8 mph 17.3 mph 0.04 in Rain Rain
10:15 AM 37.9 °F 29.6 °F 36.5 °F 95% 29.79 in 2.0 mi WNW 13.8 mph - 0.02 in Rain Rain
10:35 AM 37.8 °F 28.3 °F 36.0 °F 93% 29.81 in 4.0 mi WNW 17.3 mph 25.3 mph 0.02 in Rain Rain
10:55 AM 37.2 °F 28.3 °F 35.4 °F 93% 29.81 in 4.0 mi WNW 15.0 mph - 0.02 in Rain Light Rain
11:35 AM 35.6 °F 26.2 °F 33.8 °F 93% 29.81 in 3.0 mi NW 15.0 mph 21.9 mph N/A Rain Rain
12:15 PM 34.9 °F 24.9 °F 33.3 °F 94% 29.83 in 2.5 mi WNW 16.1 mph 20.7 mph 0.02 in Rain Rain
12:35 PM 34.3 °F 23.2 °F 32.9 °F 94% 29.82 in 2.0 mi WNW 19.6 mph 25.3 mph 0.05 in Rain Rain
12:55 PM 34.2 °F 23.6 °F 32.7 °F 94% 29.84 in 2.5 mi WNW 17.3 mph 25.3 mph 0.05 in Rain Rain
1:15 PM 33.3 °F 21.5 °F 32.0 °F 95% 29.83 in 5.0 mi WNW 20.7 mph 25.3 mph N/A Rain Light Rain
1:35 PM 33.1 °F 22.2 °F 32.0 °F 96% 29.84 in 10.0 mi WNW 17.3 mph 25.3 mph N/A   Overcast
1:55 PM 32.9 °F 22.8 °F 31.5 °F 94% 29.85 in 7.0 mi WNW 15.0 mph 26.5 mph N/A   Overcast
2:15 PM 32.5 °F 20.8 °F 30.7 °F 93% 29.88 in 10.0 mi WNW 19.6 mph 25.3 mph N/A   Overcast
2:35 PM 32.0 °F 21.2 °F 30.2 °F 93% 29.86 in 10.0 mi NW 16.1 mph 25.3 mph N/A   Overcast
2:55 PM 32.0 °F 20.8 °F 29.5 °F 90% 29.88 in 10.0 mi WNW 17.3 mph 24.2 mph N/A   Overcast
3:15 PM 31.8 °F 20.6 °F 29.7 °F 92% 29.89 in 7.0 mi WNW 17.3 mph 20.7 mph N/A   Overcast
3:35 PM 31.8 °F 21.4 °F 28.8 °F 88% 29.92 in 10.0 mi WNW 15.0 mph 25.3 mph N/A   Overcast
3:55 PM 31.5 °F 22.3 °F 28.9 °F 90% 29.93 in 4.0 mi WNW 11.5 mph 23.0 mph N/A   Overcast
4:15 PM 31.8 °F 21.8 °F 27.9 °F 85% 29.95 in 10.0 mi WNW 13.8 mph - N/A   Overcast
4:35 PM 32.0 °F 23.6 °F 28.0 °F 85% 29.96 in 10.0 mi West 10.4 mph 17.3 mph N/A   Overcast
4:55 PM 32.0 °F 22.5 °F 28.0 °F 85% 29.95 in 10.0 mi WNW 12.7 mph 18.4 mph N/A   Overcast
5:15 PM 32.0 °F 22.1 °F 27.3 °F 83% 29.96 in 10.0 mi WNW 13.8 mph 21.9 mph N/A   Overcast
5:35 PM 32.0 °F 23.6 °F 26.2 °F 79% 29.99 in 10.0 mi West 10.4 mph - N/A   Overcast
5:55 PM 32.0 °F 21.6 °F 25.0 °F 75% 29.98 in 10.0 mi WNW 15.0 mph 23.0 mph N/A   Overcast
6:15 PM 32.0 °F 20.5 °F 24.4 °F 74% 29.97 in 10.0 mi WNW 18.4 mph 24.2 mph N/A   Mostly Cloudy
6:35 PM 32.0 °F 22.5 °F 24.3 °F 73% 30.02 in 10.0 mi West 12.7 mph 17.3 mph N/A   Mostly Cloudy
6:55 PM 31.5 °F 19.8 °F 22.6 °F 70% 30.04 in 10.0 mi WNW 18.4 mph 24.2 mph N/A   Overcast
7:15 PM 30.7 °F 22.0 °F 22.6 °F 72% 30.06 in 10.0 mi WNW 10.4 mph - N/A   Mostly Cloudy
7:35 PM 30.2 °F 20.2 °F 21.4 °F 70% 30.06 in 10.0 mi WNW 12.7 mph 18.4 mph N/A   Scattered Clouds
7:55 PM 29.7 °F 19.1 °F 21.0 °F 70% 30.06 in 10.0 mi WNW 13.8 mph 19.6 mph N/A   Clear
8:15 PM 29.3 °F 17.0 °F 19.8 °F 68% 30.06 in 10.0 mi WNW 18.4 mph 24.2 mph N/A   Clear
8:35 PM 28.9 °F 18.2 °F 19.6 °F 68% 30.07 in 10.0 mi WNW 13.8 mph 19.6 mph N/A   Clear
8:55 PM 28.6 °F 18.2 °F 19.8 °F 70% 30.08 in 10.0 mi WNW 12.7 mph 18.4 mph N/A   Clear
9:15 PM 28.4 °F 19.1 °F 19.9 °F 71% 30.08 in 10.0 mi WNW 10.4 mph - N/A   Clear
9:35 PM 28.2 °F 18.3 °F 19.0 °F 68% 30.09 in 10.0 mi WNW 11.5 mph 18.4 mph N/A   Clear
9:55 PM 28.0 °F 17.0 °F 18.5 °F 67% 30.09 in 10.0 mi WNW 13.8 mph - N/A   Clear
10:15 PM 27.5 °F 18.0 °F 18.5 °F 69% 30.11 in 10.0 mi WNW 10.4 mph 18.4 mph N/A   Clear
10:35 PM 27.5 °F 16.8 °F 18.0 °F 67% 30.11 in 10.0 mi WNW 12.7 mph 24.2 mph N/A   Clear
10:55 PM 26.6 °F 16.8 °F 17.6 °F 69% 30.11 in 10.0 mi WNW 10.4 mph 16.1 mph N/A   Clear
11:15 PM 26.4 °F 15.0 °F 16.3 °F 66% 30.11 in 10.0 mi WNW 13.8 mph 18.4 mph N/A   Clear
11:35 PM 25.7 °F 15.1 °F 16.0 °F 67% 30.13 in 10.0 mi WNW 11.5 mph - N/A   Clear